Terminal Aerodrome Forecast
Issued by NWS Spokane, WA

Home | Current Version | Previous Version | Text Only | Print | Product List | Glossary On
Versions: 1 2 3 4 5 6 7 8 9 10 11 12 13 14 15 16 17 18 19 20 21 22 23 24
000
FTUS46 KOTX 050529
TAFEAT
TAF
KEAT 050529Z 0506/0606 34010KT P6SM FEW200
     FM051500 32009G14KT P6SM FEW090
     FM052000 29008KT P6SM SKC
     FM060200 09005KT P6SM SKC=

USA.gov is the U.S. government's official web portal to all federal, state and local government web resources and services.